createdAt,value
2022-08-23T00:00:16.000Z,4.1
2022-08-23T00:03:51.000Z,4.1
2022-08-23T00:07:24.000Z,3.9
2022-08-23T00:11:02.000Z,3.7
2022-08-23T00:14:35.000Z,3.5
2022-08-23T00:18:10.000Z,3.8
2022-08-23T00:21:43.000Z,3.9
2022-08-23T00:25:15.000Z,3.7
2022-08-23T00:28:07.000Z,3.6
2022-08-23T00:31:40.000Z,3.8
2022-08-23T00:35:12.000Z,4.1
2022-08-23T00:38:51.000Z,3.6
2022-08-23T00:42:24.000Z,3.7
2022-08-23T00:45:57.000Z,4
2022-08-23T00:49:29.000Z,3.8
2022-08-23T00:53:02.000Z,3.8
2022-08-23T00:56:35.000Z,3.9
2022-08-23T01:00:07.000Z,3.8
2022-08-23T01:03:40.000Z,4.1
2022-08-23T01:06:40.000Z,3.9
2022-08-23T01:10:13.000Z,3.8
2022-08-23T01:13:46.000Z,3.5
2022-08-23T01:17:19.000Z,3.8
2022-08-23T01:20:51.000Z,3.7
2022-08-23T01:24:24.000Z,4.3
2022-08-23T01:28:34.000Z,3.8
2022-08-23T01:32:11.000Z,3.9
2022-08-23T01:35:43.000Z,4
2022-08-23T01:39:16.000Z,3.9
2022-08-23T01:42:49.000Z,4.1
2022-08-23T01:45:40.000Z,3.8
2022-08-23T01:49:13.000Z,4.1
2022-08-23T01:52:45.000Z,4.2
2022-08-23T01:56:18.000Z,4.1
2022-08-23T02:00:04.000Z,4.2
2022-08-23T02:03:38.000Z,4.3
2022-08-23T02:07:17.000Z,4.2
2022-08-23T02:10:51.000Z,4.1
2022-08-23T02:14:23.000Z,4.1
2022-08-23T02:17:56.000Z,4.4
2022-08-23T02:21:29.000Z,4.5
2022-08-23T02:24:20.000Z,4.5
2022-08-23T02:27:53.000Z,4.2
2022-08-23T02:31:25.000Z,4.7
2022-08-23T02:34:59.000Z,4.3
2022-08-23T02:38:32.000Z,5.2
2022-08-23T02:42:05.000Z,4.8
2022-08-23T02:45:39.000Z,4.5
2022-08-23T02:49:12.000Z,5.1
2022-08-23T02:52:45.000Z,4.9
2022-08-23T02:56:18.000Z,5
2022-08-23T02:59:51.000Z,4.5
2022-08-23T03:02:43.000Z,4.8
2022-08-23T03:06:15.000Z,4.7
2022-08-23T03:09:51.000Z,4.7
2022-08-23T03:13:24.000Z,4.9
2022-08-23T03:16:56.000Z,4.7
2022-08-23T03:20:29.000Z,5.1
2022-08-23T03:24:02.000Z,5
2022-08-23T03:27:35.000Z,5.2
2022-08-23T03:31:10.000Z,4.8
2022-08-23T03:34:48.000Z,5.3
2022-08-23T03:38:26.000Z,5.2
2022-08-23T03:41:17.000Z,5
2022-08-23T03:44:50.000Z,5.4
2022-08-23T03:48:32.000Z,5.3
2022-08-23T03:52:05.000Z,4.6
2022-08-23T03:55:37.000Z,5.1
2022-08-23T03:59:10.000Z,5.4
2022-08-23T04:02:43.000Z,5.1
2022-08-23T04:06:15.000Z,5.3
2022-08-23T04:09:48.000Z,5
2022-08-23T04:13:21.000Z,5.6
2022-08-23T04:16:53.000Z,4.9
2022-08-23T04:19:44.000Z,5.2
2022-08-23T04:23:17.000Z,5.2
2022-08-23T04:26:50.000Z,5.2
2022-08-23T04:30:22.000Z,5.3
2022-08-23T04:33:56.000Z,5.2
2022-08-23T04:37:29.000Z,5.3
2022-08-23T04:41:02.000Z,5.5
2022-08-23T04:44:36.000Z,5.5
2022-08-23T04:48:09.000Z,5.6
2022-08-23T04:51:42.000Z,5.4
2022-08-23T04:55:19.000Z,5.6
2022-08-23T04:58:10.000Z,5.7
2022-08-23T05:01:43.000Z,5.8
2022-08-23T05:05:15.000Z,5.2
2022-08-23T05:08:48.000Z,5.8
2022-08-23T05:12:20.000Z,5.6
2022-08-23T05:15:53.000Z,5
2022-08-23T05:19:26.000Z,5.4
2022-08-23T05:22:59.000Z,5.5
2022-08-23T05:26:32.000Z,5.5
2022-08-23T05:30:04.000Z,5.6
2022-08-23T05:33:40.000Z,5.7
2022-08-23T05:36:31.000Z,5.8
2022-08-23T05:40:20.000Z,5.8
2022-08-23T05:43:53.000Z,5.8
2022-08-23T05:47:27.000Z,5.6
2022-08-23T05:51:00.000Z,5.5
2022-08-23T05:54:33.000Z,5.5
2022-08-23T05:58:05.000Z,5.9
2022-08-23T06:01:38.000Z,5.5
2022-08-23T06:05:15.000Z,5.6
2022-08-23T06:08:48.000Z,5.5
2022-08-23T06:12:20.000Z,5.7
2022-08-23T06:15:11.000Z,4.9
2022-08-23T06:18:44.000Z,4.6
2022-08-23T06:22:17.000Z,4.3
2022-08-23T06:25:49.000Z,4.5
2022-08-23T06:29:22.000Z,4.2
2022-08-23T06:32:55.000Z,4.4
2022-08-23T06:36:27.000Z,4.6
2022-08-23T06:40:00.000Z,4.5
2022-08-23T06:43:33.000Z,4.7
2022-08-23T06:47:05.000Z,4.5
2022-08-23T06:50:38.000Z,5
2022-08-23T06:53:31.000Z,4.8
2022-08-23T06:57:04.000Z,4.7
2022-08-23T07:00:36.000Z,6.1
2022-08-23T07:04:09.000Z,4.8
2022-08-23T07:07:42.000Z,4.5
2022-08-23T07:11:15.000Z,5.9
2022-08-23T07:14:47.000Z,4.7
2022-08-23T07:18:20.000Z,4.6
2022-08-23T07:21:53.000Z,4.2
2022-08-23T07:25:25.000Z,4.4
2022-08-23T07:28:58.000Z,5
2022-08-23T07:31:49.000Z,4.5
2022-08-23T07:35:22.000Z,3.9
2022-08-23T07:38:55.000Z,4
2022-08-23T07:42:28.000Z,4.7
2022-08-23T07:46:01.000Z,4.2
2022-08-23T07:49:34.000Z,3.6
2022-08-23T07:53:06.000Z,3.3
2022-08-23T07:56:57.000Z,3.3
2022-08-23T08:00:30.000Z,3.6
2022-08-23T08:04:03.000Z,3.2
2022-08-23T08:07:35.000Z,3.7
2022-08-23T08:10:27.000Z,3.6
2022-08-23T08:13:59.000Z,3.5
2022-08-23T08:17:32.000Z,3.1
2022-08-23T08:21:06.000Z,3.3
2022-08-23T08:24:45.000Z,3.4
2022-08-23T08:28:18.000Z,3.1
2022-08-23T08:31:51.000Z,3.3
2022-08-23T08:35:29.000Z,3.5
2022-08-23T08:39:02.000Z,3
2022-08-23T08:42:35.000Z,3.3
2022-08-23T08:46:12.000Z,2.7
2022-08-23T08:49:03.000Z,2.9
2022-08-23T08:52:36.000Z,2.6
2022-08-23T08:56:09.000Z,2.9
2022-08-23T08:59:42.000Z,2.6
2022-08-23T09:03:15.000Z,2.6
2022-08-23T09:06:48.000Z,2.6
2022-08-23T09:10:21.000Z,2.5
2022-08-23T09:13:53.000Z,2.4
2022-08-23T09:17:26.000Z,2.6
2022-08-23T09:20:59.000Z,2.2
2022-08-23T09:24:31.000Z,2.5
2022-08-23T09:27:23.000Z,2.7
2022-08-23T09:30:58.000Z,2.6
2022-08-23T09:34:33.000Z,2.4
2022-08-23T09:38:07.000Z,2.5
2022-08-23T09:41:39.000Z,2.3
2022-08-23T09:45:12.000Z,2.3
2022-08-23T09:48:45.000Z,2.1
2022-08-23T09:52:20.000Z,2.2
2022-08-23T09:55:52.000Z,2.3
2022-08-23T09:59:26.000Z,2.4
2022-08-23T10:02:59.000Z,2.7
2022-08-23T10:05:50.000Z,2.3
2022-08-23T10:09:23.000Z,2.6
2022-08-23T10:12:55.000Z,2.1
2022-08-23T10:16:29.000Z,2.4
2022-08-23T10:20:02.000Z,2.2
2022-08-23T10:23:36.000Z,2.2
2022-08-23T10:27:09.000Z,2.2
2022-08-23T10:30:42.000Z,2.2
2022-08-23T10:34:15.000Z,2.2
2022-08-23T10:37:47.000Z,2.4
2022-08-23T10:41:20.000Z,2.1
2022-08-23T10:44:12.000Z,2.2
2022-08-23T10:47:45.000Z,2.1
2022-08-23T10:51:17.000Z,1.9
2022-08-23T10:54:57.000Z,1.8
2022-08-23T10:58:30.000Z,2.1
2022-08-23T11:02:02.000Z,2.2
2022-08-23T11:05:35.000Z,2.4
2022-08-23T11:09:09.000Z,1.9
2022-08-23T11:12:55.000Z,2
2022-08-23T11:16:27.000Z,2.1
2022-08-23T11:20:01.000Z,2.2
2022-08-23T11:22:52.000Z,2.2
2022-08-23T11:26:25.000Z,2
2022-08-23T11:29:57.000Z,2.1
2022-08-23T11:33:30.000Z,2
2022-08-23T11:37:03.000Z,2.2
2022-08-23T11:40:35.000Z,2.1
2022-08-23T11:44:08.000Z,2.1
2022-08-23T11:47:41.000Z,2
2022-08-23T11:51:14.000Z,2.2
2022-08-23T11:54:46.000Z,2.2
2022-08-23T11:58:19.000Z,2.6
2022-08-23T12:01:10.000Z,2.3
2022-08-23T12:04:44.000Z,2.1
2022-08-23T12:08:20.000Z,2.3
2022-08-23T12:11:52.000Z,2.3
2022-08-23T12:15:26.000Z,2.1
2022-08-23T12:19:03.000Z,2.1
2022-08-23T12:22:38.000Z,1.8
2022-08-23T12:26:11.000Z,2.1
2022-08-23T12:29:44.000Z,2.3
2022-08-23T12:33:17.000Z,2.1
2022-08-23T12:36:51.000Z,2.2
2022-08-23T12:39:42.000Z,2.3
2022-08-23T12:43:15.000Z,2.1
2022-08-23T12:46:48.000Z,2.3
2022-08-23T12:50:21.000Z,2.5
2022-08-23T12:53:58.000Z,2.1
2022-08-23T12:57:31.000Z,2.1
2022-08-23T13:01:03.000Z,2.4
2022-08-23T13:04:37.000Z,2.3
2022-08-23T13:08:10.000Z,2.2
2022-08-23T13:11:53.000Z,2.1
2022-08-23T13:15:27.000Z,2.4
2022-08-23T13:18:18.000Z,1.9
2022-08-23T13:21:51.000Z,2.2
2022-08-23T13:25:24.000Z,2.4
2022-08-23T13:28:58.000Z,2.3
2022-08-23T13:32:30.000Z,2.5
2022-08-23T13:36:04.000Z,2.1
2022-08-23T13:39:38.000Z,2.5
2022-08-23T13:43:11.000Z,2.1
2022-08-23T13:46:44.000Z,2
2022-08-23T13:50:17.000Z,2.1
2022-08-23T13:53:49.000Z,2.4
2022-08-23T13:56:41.000Z,2.1
2022-08-23T14:00:13.000Z,2.1
2022-08-23T14:03:47.000Z,2.2
2022-08-23T14:07:21.000Z,2.3
2022-08-23T14:10:53.000Z,2.1
2022-08-23T14:14:26.000Z,2.4
2022-08-23T14:18:29.000Z,2.1
2022-08-23T14:22:41.000Z,2.1
2022-08-23T14:26:14.000Z,2.3
2022-08-23T14:29:47.000Z,2.2
2022-08-23T14:33:20.000Z,2.3
2022-08-23T14:36:11.000Z,2.3
2022-08-23T14:40:03.000Z,1.9
2022-08-23T14:43:36.000Z,2
2022-08-23T14:47:08.000Z,2.1
2022-08-23T14:50:41.000Z,2.1
2022-08-23T14:54:14.000Z,2.2
2022-08-23T14:57:47.000Z,2
2022-08-23T15:01:20.000Z,2.2
2022-08-23T15:04:53.000Z,2
2022-08-23T15:12:43.000Z,2
2022-08-23T15:16:04.000Z,2
2022-08-23T15:19:37.000Z,2.1
2022-08-23T15:23:09.000Z,2.1
2022-08-23T15:26:42.000Z,2
2022-08-23T15:30:15.000Z,2.3
2022-08-23T15:33:48.000Z,2.3
2022-08-23T15:37:21.000Z,2.2
2022-08-23T15:40:53.000Z,2.2
2022-08-23T15:44:26.000Z,2
2022-08-23T15:47:59.000Z,2.1
2022-08-23T15:51:35.000Z,2.3
2022-08-23T15:54:26.000Z,1.9
2022-08-23T15:58:04.000Z,2.3
2022-08-23T16:01:37.000Z,2.3
2022-08-23T16:05:19.000Z,2
2022-08-23T16:08:52.000Z,1.9
2022-08-23T16:12:26.000Z,2.1
2022-08-23T16:15:59.000Z,2
2022-08-23T16:19:32.000Z,2.3
2022-08-23T16:23:05.000Z,2
2022-08-23T16:26:38.000Z,2.4
2022-08-23T16:30:11.000Z,2.3
2022-08-23T16:33:02.000Z,2.1
2022-08-23T16:36:35.000Z,2.4
2022-08-23T16:40:08.000Z,2.3
2022-08-23T16:43:41.000Z,2.4
2022-08-23T16:47:14.000Z,2.1
2022-08-23T16:50:46.000Z,2.2
2022-08-23T16:54:33.000Z,2.3
2022-08-23T16:58:05.000Z,1.9
2022-08-23T17:01:39.000Z,2.2
2022-08-23T17:05:12.000Z,2.1
2022-08-23T17:08:46.000Z,2.1
2022-08-23T17:11:37.000Z,2.1
2022-08-23T17:15:10.000Z,2.1
2022-08-23T17:18:45.000Z,2.2
2022-08-23T17:22:19.000Z,2.1
2022-08-23T17:25:52.000Z,1.9
2022-08-23T17:29:24.000Z,2.6
2022-08-23T17:33:02.000Z,2.3
2022-08-23T17:36:35.000Z,2
2022-08-23T17:40:13.000Z,2.3
2022-08-23T17:43:46.000Z,2.3
2022-08-23T17:47:19.000Z,2.1
2022-08-23T17:50:10.000Z,2.2
2022-08-23T17:53:43.000Z,2.1
2022-08-23T17:57:17.000Z,2.4
2022-08-23T18:00:50.000Z,2.6
2022-08-23T18:04:23.000Z,2.4
2022-08-23T18:07:55.000Z,2.3
2022-08-23T18:11:28.000Z,2.6
2022-08-23T18:15:01.000Z,2.6
2022-08-23T18:18:34.000Z,2.5
2022-08-23T18:22:07.000Z,2.6
2022-08-23T18:25:40.000Z,2.5
2022-08-23T18:28:31.000Z,2.6
2022-08-23T18:32:03.000Z,2.5
2022-08-23T18:35:46.000Z,2.4
2022-08-23T18:39:18.000Z,2.4
2022-08-23T18:42:57.000Z,2.9
2022-08-23T18:46:30.000Z,2.9
2022-08-23T18:50:02.000Z,3.3
2022-08-23T18:53:35.000Z,2.8
2022-08-23T18:57:08.000Z,2.5
2022-08-23T19:00:41.000Z,2.7
2022-08-23T19:04:16.000Z,2.7
2022-08-23T19:07:07.000Z,2.7
2022-08-23T19:10:40.000Z,2.5
2022-08-23T19:14:12.000Z,2.7
2022-08-23T19:17:45.000Z,2.6
2022-08-23T19:21:18.000Z,2.6
2022-08-23T19:24:50.000Z,2.7
2022-08-23T19:28:23.000Z,2.8
2022-08-23T19:31:57.000Z,2.7
2022-08-23T19:35:31.000Z,2.5
2022-08-23T19:39:09.000Z,2.6
2022-08-23T19:42:42.000Z,2.7
2022-08-23T19:45:33.000Z,2.8
2022-08-23T19:49:12.000Z,2.7
2022-08-23T19:52:44.000Z,2.8
2022-08-23T19:56:17.000Z,2.7
2022-08-23T19:59:52.000Z,2.7
2022-08-23T20:03:25.000Z,2.4
2022-08-23T20:06:57.000Z,2.9
2022-08-23T20:10:30.000Z,2.7
2022-08-23T20:14:03.000Z,2.7
2022-08-23T20:17:36.000Z,2.7
2022-08-23T20:21:08.000Z,2.5
2022-08-23T20:24:07.000Z,2.5
2022-08-23T20:27:39.000Z,2.4
2022-08-23T20:31:12.000Z,2.7
2022-08-23T20:34:45.000Z,2.6
2022-08-23T20:38:18.000Z,2.5
2022-08-23T20:41:59.000Z,2.8
2022-08-23T20:45:33.000Z,2.6
2022-08-23T20:49:08.000Z,2.5
2022-08-23T20:52:41.000Z,2.8
2022-08-23T20:56:13.000Z,2.6
2022-08-23T20:59:46.000Z,2.5
2022-08-23T21:02:37.000Z,2.8
2022-08-23T21:06:10.000Z,2.8
2022-08-23T21:09:46.000Z,2.6
2022-08-23T21:13:19.000Z,2.6
2022-08-23T21:16:51.000Z,2.5
2022-08-23T21:20:24.000Z,2.8
2022-08-23T21:23:56.000Z,2.8
2022-08-23T21:27:29.000Z,2.8
2022-08-23T21:31:02.000Z,2.7
2022-08-23T21:34:35.000Z,2.7
2022-08-23T21:38:07.000Z,2.9
2022-08-23T21:40:59.000Z,2.4
2022-08-23T21:44:31.000Z,2.8
2022-08-23T21:48:04.000Z,2.6
2022-08-23T21:51:37.000Z,2.4
2022-08-23T21:55:09.000Z,2.8
2022-08-23T21:58:42.000Z,2.7
2022-08-23T22:02:15.000Z,2.3
2022-08-23T22:05:54.000Z,2.7
2022-08-23T22:09:27.000Z,2.8
2022-08-23T22:13:00.000Z,2.8
2022-08-23T22:16:32.000Z,2.7
2022-08-23T22:19:23.000Z,2.4
2022-08-23T22:22:56.000Z,2.9
2022-08-23T22:26:29.000Z,2.8
2022-08-23T22:30:02.000Z,2.8
2022-08-23T22:33:34.000Z,2.8
2022-08-23T22:37:07.000Z,2.5
2022-08-23T22:40:39.000Z,2.7
2022-08-23T22:44:12.000Z,3.1
2022-08-23T22:47:45.000Z,2.9
2022-08-23T22:51:17.000Z,3.1
2022-08-23T22:54:50.000Z,2.9
2022-08-23T22:57:41.000Z,3.1
2022-08-23T23:01:14.000Z,3
2022-08-23T23:04:48.000Z,3
2022-08-23T23:08:21.000Z,2.8
2022-08-23T23:11:53.000Z,3.1
2022-08-23T23:15:26.000Z,3
2022-08-23T23:26:36.000Z,3
2022-08-23T23:30:13.000Z,3.2
2022-08-23T23:33:47.000Z,3.3
2022-08-23T23:36:38.000Z,3
2022-08-23T23:40:11.000Z,3.4
2022-08-23T23:43:43.000Z,3.1
2022-08-23T23:47:16.000Z,3.1
2022-08-23T23:50:49.000Z,3.4
2022-08-23T23:54:21.000Z,2.9
2022-08-23T23:57:54.000Z,3.3
